sensor_id;sensor_type;location;lat;lon;timestamp;temperature;humidity
12060;DHT22;6091;51.432;6.880;2024-01-15T00:01:12;23.90;27.90
12060;DHT22;6091;51.432;6.880;2024-01-15T00:03:39;23.90;28.00
12060;DHT22;6091;51.432;6.880;2024-01-15T00:06:07;23.80;28.00
12060;DHT22;6091;51.432;6.880;2024-01-15T00:08:34;23.70;28.00
12060;DHT22;6091;51.432;6.880;2024-01-15T00:11:01;23.70;28.00
12060;DHT22;6091;51.432;6.880;2024-01-15T00:13:28;23.60;28.00
12060;DHT22;6091;51.432;6.880;2024-01-15T00:15:56;23.60;28.00
12060;DHT22;6091;51.432;6.880;2024-01-15T00:18:23;23.60;28.00
12060;DHT22;6091;51.432;6.880;2024-01-15T00:20:51;23.50;28.00
12060;DHT22;6091;51.432;6.880;2024-01-15T00:23:18;23.50;28.10
12060;DHT22;6091;51.432;6.880;2024-01-15T00:25:46;23.40;28.10
12060;DHT22;6091;51.432;6.880;2024-01-15T00:28:15;23.40;28.10
12060;DHT22;6091;51.432;6.880;2024-01-15T00:30:42;23.40;28.20
12060;DHT22;6091;51.432;6.880;2024-01-15T00:33:10;23.30;28.10
12060;DHT22;6091;51.432;6.880;2024-01-15T00:35:39;23.30;28.10
12060;DHT22;6091;51.432;6.880;2024-01-15T00:38:07;23.20;28.10
12060;DHT22;6091;51.432;6.880;2024-01-15T00:40:34;23.20;28.20
12060;DHT22;6091;51.432;6.880;2024-01-15T00:43:02;23.10;28.10
12060;DHT22;6091;51.432;6.880;2024-01-15T00:45:29;23.10;28.20
12060;DHT22;6091;51.432;6.880;2024-01-15T00:47:56;23.10;28.20
12060;DHT22;6091;51.432;6.880;2024-01-15T00:50:23;23.00;28.20
12060;DHT22;6091;51.432;6.880;2024-01-15T00:52:51;23.00;28.30
12060;DHT22;6091;51.432;6.880;2024-01-15T00:55:18;22.90;28.30
12060;DHT22;6091;51.432;6.880;2024-01-15T00:57:50;22.90;28.30
12060;DHT22;6091;51.432;6.880;2024-01-15T01:00:17;22.90;28.30
12060;DHT22;6091;51.432;6.880;2024-01-15T01:02:45;22.80;28.30
12060;DHT22;6091;51.432;6.880;2024-01-15T01:05:12;22.80;28.40
12060;DHT22;6091;51.432;6.880;2024-01-15T01:07:40;22.80;28.40
12060;DHT22;6091;51.432;6.880;2024-01-15T01:10:08;22.80;28.50
12060;DHT22;6091;51.432;6.880;2024-01-15T01:12:36;22.70;28.40
12060;DHT22;6091;51.432;6.880;2024-01-15T01:15:03;22.70;28.50
12060;DHT22;6091;51.432;6.880;2024-01-15T01:17:30;22.60;28.50
12060;DHT22;6091;51.432;6.880;2024-01-15T01:19:58;22.60;28.50
12060;DHT22;6091;51.432;6.880;2024-01-15T01:22:26;22.60;28.50
12060;DHT22;6091;51.432;6.880;2024-01-15T01:24:53;22.50;28.50
12060;DHT22;6091;51.432;6.880;2024-01-15T01:27:23;22.50;28.50
12060;DHT22;6091;51.432;6.880;2024-01-15T01:29:51;22.50;28.60
12060;DHT22;6091;51.432;6.880;2024-01-15T01:32:18;22.40;28.50
12060;DHT22;6091;51.432;6.880;2024-01-15T01:34:46;22.40;28.60
12060;DHT22;6091;51.432;6.880;2024-01-15T01:37:15;22.40;28.60
12060;DHT22;6091;51.432;6.880;2024-01-15T01:39:43;22.40;28.70
12060;DHT22;6091;51.432;6.880;2024-01-15T01:42:11;22.40;28.70
12060;DHT22;6091;51.432;6.880;2024-01-15T01:44:39;22.30;28.60
12060;DHT22;6091;51.432;6.880;2024-01-15T01:47:06;22.30;28.70
12060;DHT22;6091;51.432;6.880;2024-01-15T01:49:34;22.30;28.70
12060;DHT22;6091;51.432;6.880;2024-01-15T01:52:05;22.20;28.70
12060;DHT22;6091;51.432;6.880;2024-01-15T01:54:37;22.20;28.70
12060;DHT22;6091;51.432;6.880;2024-01-15T01:57:07;22.20;28.80
12060;DHT22;6091;51.432;6.880;2024-01-15T01:59:36;22.10;28.70
12060;DHT22;6091;51.432;6.880;2024-01-15T02:02:03;22.20;28.80
12060;DHT22;6091;51.432;6.880;2024-01-15T02:04:32;22.10;28.80
12060;DHT22;6091;51.432;6.880;2024-01-15T02:07:00;22.10;28.80
12060;DHT22;6091;51.432;6.880;2024-01-15T02:09:28;22.10;28.90
12060;DHT22;6091;51.432;6.880;2024-01-15T02:11:55;22.00;28.80
12060;DHT22;6091;51.432;6.880;2024-01-15T02:14:22;22.00;28.90
12060;DHT22;6091;51.432;6.880;2024-01-15T02:16:50;22.00;28.90
12060;DHT22;6091;51.432;6.880;2024-01-15T02:19:18;22.00;28.90
12060;DHT22;6091;51.432;6.880;2024-01-15T02:21:45;21.90;28.90
12060;DHT22;6091;51.432;6.880;2024-01-15T02:24:12;22.00;29.00
12060;DHT22;6091;51.432;6.880;2024-01-15T02:26:40;21.90;28.90
12060;DHT22;6091;51.432;6.880;2024-01-15T02:29:08;21.90;28.90
12060;DHT22;6091;51.432;6.880;2024-01-15T02:31:36;22.00;29.10
12060;DHT22;6091;51.432;6.880;2024-01-15T02:34:05;21.90;29.00
12060;DHT22;6091;51.432;6.880;2024-01-15T02:36:32;21.80;29.00
12060;DHT22;6091;51.432;6.880;2024-01-15T02:38:59;21.80;29.00
12060;DHT22;6091;51.432;6.880;2024-01-15T02:41:26;21.80;29.10
12060;DHT22;6091;51.432;6.880;2024-01-15T02:43:54;21.80;29.00
12060;DHT22;6091;51.432;6.880;2024-01-15T02:46:22;21.80;29.10
12060;DHT22;6091;51.432;6.880;2024-01-15T02:48:49;21.80;29.10
12060;DHT22;6091;51.432;6.880;2024-01-15T02:51:16;21.80;29.10
12060;DHT22;6091;51.432;6.880;2024-01-15T02:53:43;21.70;29.10
12060;DHT22;6091;51.432;6.880;2024-01-15T02:56:11;21.70;29.10
12060;DHT22;6091;51.432;6.880;2024-01-15T02:58:38;21.70;29.10
12060;DHT22;6091;51.432;6.880;2024-01-15T03:01:05;21.70;29.10
12060;DHT22;6091;51.432;6.880;2024-01-15T03:03:34;21.70;29.20
12060;DHT22;6091;51.432;6.880;2024-01-15T03:06:02;21.60;29.10
12060;DHT22;6091;51.432;6.880;2024-01-15T03:08:31;21.60;29.10
12060;DHT22;6091;51.432;6.880;2024-01-15T03:10:59;21.60;29.20
12060;DHT22;6091;51.432;6.880;2024-01-15T03:13:26;21.60;29.20
12060;DHT22;6091;51.432;6.880;2024-01-15T03:15:53;21.60;29.20
12060;DHT22;6091;51.432;6.880;2024-01-15T03:18:20;21.50;29.20
12060;DHT22;6091;51.432;6.880;2024-01-15T03:20:48;21.50;29.20
12060;DHT22;6091;51.432;6.880;2024-01-15T03:23:15;21.50;29.30
12060;DHT22;6091;51.432;6.880;2024-01-15T03:25:42;21.50;29.30
12060;DHT22;6091;51.432;6.880;2024-01-15T03:28:11;21.50;29.30
12060;DHT22;6091;51.432;6.880;2024-01-15T03:30:39;21.50;29.30
12060;DHT22;6091;51.432;6.880;2024-01-15T03:33:07;21.50;29.30
12060;DHT22;6091;51.432;6.880;2024-01-15T03:35:34;21.40;29.30
12060;DHT22;6091;51.432;6.880;2024-01-15T03:38:01;21.40;29.30
12060;DHT22;6091;51.432;6.880;2024-01-15T03:40:28;21.50;29.00
12060;DHT22;6091;51.432;6.880;2024-01-15T03:42:56;21.30;29.30
12060;DHT22;6091;51.432;6.880;2024-01-15T03:45:23;21.40;29.30
12060;DHT22;6091;51.432;6.880;2024-01-15T03:47:50;21.40;29.40
12060;DHT22;6091;51.432;6.880;2024-01-15T03:50:17;21.30;29.40
12060;DHT22;6091;51.432;6.880;2024-01-15T03:52:44;21.30;29.40
12060;DHT22;6091;51.432;6.880;2024-01-15T03:55:12;21.30;29.40
12060;DHT22;6091;51.432;6.880;2024-01-15T03:57:39;21.30;29.40
12060;DHT22;6091;51.432;6.880;2024-01-15T04:00:07;21.20;29.40
12060;DHT22;6091;51.432;6.880;2024-01-15T04:02:35;21.30;29.50
12060;DHT22;6091;51.432;6.880;2024-01-15T04:05:02;21.30;29.50
12060;DHT22;6091;51.432;6.880;2024-01-15T04:07:29;21.20;29.50
12060;DHT22;6091;51.432;6.880;2024-01-15T04:09:56;21.20;29.50
12060;DHT22;6091;51.432;6.880;2024-01-15T04:12:24;21.20;29.50
12060;DHT22;6091;51.432;6.880;2024-01-15T04:14:51;21.20;29.50
12060;DHT22;6091;51.432;6.880;2024-01-15T04:17:18;21.20;29.50
12060;DHT22;6091;51.432;6.880;2024-01-15T04:19:45;21.10;29.50
12060;DHT22;6091;51.432;6.880;2024-01-15T04:22:14;21.10;29.50
12060;DHT22;6091;51.432;6.880;2024-01-15T04:24:41;21.10;29.50
12060;DHT22;6091;51.432;6.880;2024-01-15T04:27:08;21.10;29.50
12060;DHT22;6091;51.432;6.880;2024-01-15T04:29:38;21.10;29.60
12060;DHT22;6091;51.432;6.880;2024-01-15T04:32:07;21.10;29.60
12060;DHT22;6091;51.432;6.880;2024-01-15T04:34:34;21.10;29.60
12060;DHT22;6091;51.432;6.880;2024-01-15T04:37:02;21.10;29.60
12060;DHT22;6091;51.432;6.880;2024-01-15T04:39:29;21.00;29.60
12060;DHT22;6091;51.432;6.880;2024-01-15T04:41:56;21.00;29.60
12060;DHT22;6091;51.432;6.880;2024-01-15T04:44:23;21.00;29.70
12060;DHT22;6091;51.432;6.880;2024-01-15T04:46:50;21.00;29.70
12060;DHT22;6091;51.432;6.880;2024-01-15T04:49:17;21.00;29.70
12060;DHT22;6091;51.432;6.880;2024-01-15T04:51:45;21.00;29.70
12060;DHT22;6091;51.432;6.880;2024-01-15T04:54:12;20.90;29.70
12060;DHT22;6091;51.432;6.880;2024-01-15T04:56:44;20.90;29.70
12060;DHT22;6091;51.432;6.880;2024-01-15T04:59:13;20.90;29.70
12060;DHT22;6091;51.432;6.880;2024-01-15T05:01:41;20.90;29.80
12060;DHT22;6091;51.432;6.880;2024-01-15T05:04:08;20.90;29.80
12060;DHT22;6091;51.432;6.880;2024-01-15T05:06:35;20.90;29.80
12060;DHT22;6091;51.432;6.880;2024-01-15T05:09:04;20.90;29.80
12060;DHT22;6091;51.432;6.880;2024-01-15T05:11:31;20.90;29.80
12060;DHT22;6091;51.432;6.880;2024-01-15T05:13:58;20.80;29.80
12060;DHT22;6091;51.432;6.880;2024-01-15T05:16:25;20.80;29.80
12060;DHT22;6091;51.432;6.880;2024-01-15T05:18:52;20.80;29.80
12060;DHT22;6091;51.432;6.880;2024-01-15T05:21:20;20.80;29.80
12060;DHT22;6091;51.432;6.880;2024-01-15T05:23:47;20.80;29.80
12060;DHT22;6091;51.432;6.880;2024-01-15T05:26:14;20.80;29.80
12060;DHT22;6091;51.432;6.880;2024-01-15T05:28:41;20.80;29.90
12060;DHT22;6091;51.432;6.880;2024-01-15T05:31:10;20.80;29.90
12060;DHT22;6091;51.432;6.880;2024-01-15T05:33:38;20.70;29.80
12060;DHT22;6091;51.432;6.880;2024-01-15T05:36:06;20.70;29.90
12060;DHT22;6091;51.432;6.880;2024-01-15T05:38:33;20.70;29.90
12060;DHT22;6091;51.432;6.880;2024-01-15T05:41:00;20.70;29.90
12060;DHT22;6091;51.432;6.880;2024-01-15T05:43:27;20.60;29.90
12060;DHT22;6091;51.432;6.880;2024-01-15T05:45:54;20.70;29.90
12060;DHT22;6091;51.432;6.880;2024-01-15T05:48:21;20.70;29.90
12060;DHT22;6091;51.432;6.880;2024-01-15T05:50:49;20.70;30.00
12060;DHT22;6091;51.432;6.880;2024-01-15T05:53:17;20.60;29.90
12060;DHT22;6091;51.432;6.880;2024-01-15T05:55:46;20.60;29.90
12060;DHT22;6091;51.432;6.880;2024-01-15T05:58:14;20.60;30.00
12060;DHT22;6091;51.432;6.880;2024-01-15T06:00:41;20.50;29.90
12060;DHT22;6091;51.432;6.880;2024-01-15T06:03:08;20.60;30.00
12060;DHT22;6091;51.432;6.880;2024-01-15T06:05:35;20.60;30.00
12060;DHT22;6091;51.432;6.880;2024-01-15T06:08:03;20.50;30.00
12060;DHT22;6091;51.432;6.880;2024-01-15T06:10:30;20.50;30.40
12060;DHT22;6091;51.432;6.880;2024-01-15T06:12:57;20.60;30.80
12060;DHT22;6091;51.432;6.880;2024-01-15T06:15:24;20.60;31.20
12060;DHT22;6091;51.432;6.880;2024-01-15T06:17:51;20.80;31.60
12060;DHT22;6091;51.432;6.880;2024-01-15T06:20:19;20.90;31.80
12060;DHT22;6091;51.432;6.880;2024-01-15T06:22:46;21.10;31.90
12060;DHT22;6091;51.432;6.880;2024-01-15T06:25:18;21.40;31.90
12060;DHT22;6091;51.432;6.880;2024-01-15T06:27:46;21.60;31.80
12060;DHT22;6091;51.432;6.880;2024-01-15T06:30:13;21.90;31.80
12060;DHT22;6091;51.432;6.880;2024-01-15T06:32:41;22.10;31.70
12060;DHT22;6091;51.432;6.880;2024-01-15T06:35:08;22.30;31.50
12060;DHT22;6091;51.432;6.880;2024-01-15T06:37:37;22.60;31.50
12060;DHT22;6091;51.432;6.880;2024-01-15T06:40:04;22.80;31.40
12060;DHT22;6091;51.432;6.880;2024-01-15T06:42:32;23.00;31.20
12060;DHT22;6091;51.432;6.880;2024-01-15T06:45:00;23.20;31.20
12060;DHT22;6091;51.432;6.880;2024-01-15T06:47:27;23.40;31.10
12060;DHT22;6091;51.432;6.880;2024-01-15T06:49:54;23.60;31.00
12060;DHT22;6091;51.432;6.880;2024-01-15T06:52:21;23.80;30.90
12060;DHT22;6091;51.432;6.880;2024-01-15T06:54:48;23.90;30.80
12060;DHT22;6091;51.432;6.880;2024-01-15T06:57:16;24.10;30.70
12060;DHT22;6091;51.432;6.880;2024-01-15T06:59:43;24.20;30.20
12060;DHT22;6091;51.432;6.880;2024-01-15T07:02:11;24.30;30.20
12060;DHT22;6091;51.432;6.880;2024-01-15T07:04:38;24.40;30.30
12060;DHT22;6091;51.432;6.880;2024-01-15T07:07:09;24.50;30.40
12060;DHT22;6091;51.432;6.880;2024-01-15T07:09:36;24.60;30.40
12060;DHT22;6091;51.432;6.880;2024-01-15T07:12:05;24.70;30.50
12060;DHT22;6091;51.432;6.880;2024-01-15T07:14:32;24.80;30.40
12060;DHT22;6091;51.432;6.880;2024-01-15T07:16:59;24.90;30.50
12060;DHT22;6091;51.432;6.880;2024-01-15T07:19:26;25.00;30.40
12060;DHT22;6091;51.432;6.880;2024-01-15T07:21:54;25.10;30.30
12060;DHT22;6091;51.432;6.880;2024-01-15T07:24:23;25.20;30.30
12060;DHT22;6091;51.432;6.880;2024-01-15T07:26:50;25.30;30.30
12060;DHT22;6091;51.432;6.880;2024-01-15T07:29:17;25.40;30.20
12060;DHT22;6091;51.432;6.880;2024-01-15T07:31:51;25.50;30.10
12060;DHT22;6091;51.432;6.880;2024-01-15T07:34:19;25.50;30.00
12060;DHT22;6091;51.432;6.880;2024-01-15T07:36:46;25.50;30.30
12060;DHT22;6091;51.432;6.880;2024-01-15T07:39:13;25.60;30.30
12060;DHT22;6091;51.432;6.880;2024-01-15T07:41:40;25.70;30.30
12060;DHT22;6091;51.432;6.880;2024-01-15T07:44:08;25.80;30.30
12060;DHT22;6091;51.432;6.880;2024-01-15T07:46:35;25.90;30.20
12060;DHT22;6091;51.432;6.880;2024-01-15T07:49:02;26.10;30.30
12060;DHT22;6091;51.432;6.880;2024-01-15T07:51:30;26.10;30.30
12060;DHT22;6091;51.432;6.880;2024-01-15T07:53:59;26.20;30.30
12060;DHT22;6091;51.432;6.880;2024-01-15T07:56:26;26.30;30.20
12060;DHT22;6091;51.432;6.880;2024-01-15T07:58:54;26.30;30.20
12060;DHT22;6091;51.432;6.880;2024-01-15T08:01:21;26.40;30.20
12060;DHT22;6091;51.432;6.880;2024-01-15T08:03:48;26.40;30.10
12060;DHT22;6091;51.432;6.880;2024-01-15T08:06:16;26.50;30.10
12060;DHT22;6091;51.432;6.880;2024-01-15T08:08:43;26.50;30.00
12060;DHT22;6091;51.432;6.880;2024-01-15T08:11:11;26.50;30.00
12060;DHT22;6091;51.432;6.880;2024-01-15T08:13:38;26.50;29.90
12060;DHT22;6091;51.432;6.880;2024-01-15T08:16:05;26.50;29.90
12060;DHT22;6091;51.432;6.880;2024-01-15T08:18:32;26.50;29.70
12060;DHT22;6091;51.432;6.880;2024-01-15T08:21:00;26.40;29.60
12060;DHT22;6091;51.432;6.880;2024-01-15T08:23:27;26.30;29.50
12060;DHT22;6091;51.432;6.880;2024-01-15T08:25:58;26.30;29.50
12060;DHT22;6091;51.432;6.880;2024-01-15T08:28:25;26.20;29.40
12060;DHT22;6091;51.432;6.880;2024-01-15T08:30:52;26.10;29.40
12060;DHT22;6091;51.432;6.880;2024-01-15T08:33:19;25.90;29.40
12060;DHT22;6091;51.432;6.880;2024-01-15T08:35:48;25.80;29.60
12060;DHT22;6091;51.432;6.880;2024-01-15T08:38:15;25.80;29.60
12060;DHT22;6091;51.432;6.880;2024-01-15T08:40:44;25.80;29.70
12060;DHT22;6091;51.432;6.880;2024-01-15T08:43:12;25.70;29.60
12060;DHT22;6091;51.432;6.880;2024-01-15T08:45:39;25.80;29.70
12060;DHT22;6091;51.432;6.880;2024-01-15T08:48:07;25.70;29.70
12060;DHT22;6091;51.432;6.880;2024-01-15T08:50:34;25.80;29.70
12060;DHT22;6091;51.432;6.880;2024-01-15T08:53:01;25.80;29.80
12060;DHT22;6091;51.432;6.880;2024-01-15T08:55:29;25.90;29.80
12060;DHT22;6091;51.432;6.880;2024-01-15T08:57:56;25.90;29.80
12060;DHT22;6091;51.432;6.880;2024-01-15T09:00:25;25.90;29.80
12060;DHT22;6091;51.432;6.880;2024-01-15T09:02:52;26.00;29.90
12060;DHT22;6091;51.432;6.880;2024-01-15T09:05:19;26.00;29.80
12060;DHT22;6091;51.432;6.880;2024-01-15T09:07:47;26.10;29.80
12060;DHT22;6091;51.432;6.880;2024-01-15T09:10:14;26.10;30.00
12060;DHT22;6091;51.432;6.880;2024-01-15T09:12:42;26.10;29.80
12060;DHT22;6091;51.432;6.880;2024-01-15T09:15:09;26.20;29.70
12060;DHT22;6091;51.432;6.880;2024-01-15T09:17:40;26.20;29.80
12060;DHT22;6091;51.432;6.880;2024-01-15T09:20:08;26.30;30.00
12060;DHT22;6091;51.432;6.880;2024-01-15T09:22:39;26.30;29.70
12060;DHT22;6091;51.432;6.880;2024-01-15T09:25:09;26.30;29.50
12060;DHT22;6091;51.432;6.880;2024-01-15T09:27:37;26.40;29.50
12060;DHT22;6091;51.432;6.880;2024-01-15T09:30:06;26.40;29.40
12060;DHT22;6091;51.432;6.880;2024-01-15T09:32:35;26.40;29.40
12060;DHT22;6091;51.432;6.880;2024-01-15T09:35:03;26.40;29.30
12060;DHT22;6091;51.432;6.880;2024-01-15T09:37:30;26.30;29.20
12060;DHT22;6091;51.432;6.880;2024-01-15T09:40:14;26.30;29.20
12060;DHT22;6091;51.432;6.880;2024-01-15T09:42:43;26.30;29.20
12060;DHT22;6091;51.432;6.880;2024-01-15T09:45:11;26.30;29.20
12060;DHT22;6091;51.432;6.880;2024-01-15T09:47:40;26.20;29.20
12060;DHT22;6091;51.432;6.880;2024-01-15T09:50:13;26.20;29.20
12060;DHT22;6091;51.432;6.880;2024-01-15T09:52:54;26.10;29.20
12060;DHT22;6091;51.432;6.880;2024-01-15T09:55:26;26.10;29.20
12060;DHT22;6091;51.432;6.880;2024-01-15T09:57:55;26.10;29.30
12060;DHT22;6091;51.432;6.880;2024-01-15T10:00:25;26.00;29.40
12060;DHT22;6091;51.432;6.880;2024-01-15T10:02:53;26.00;29.50
12060;DHT22;6091;51.432;6.880;2024-01-15T10:05:21;26.00;29.60
12060;DHT22;6091;51.432;6.880;2024-01-15T10:07:48;26.00;29.70
12060;DHT22;6091;51.432;6.880;2024-01-15T10:10:17;26.00;29.70
12060;DHT22;6091;51.432;6.880;2024-01-15T10:12:44;26.00;29.70
12060;DHT22;6091;51.432;6.880;2024-01-15T10:15:12;26.00;29.70
12060;DHT22;6091;51.432;6.880;2024-01-15T10:17:41;26.10;29.70
12060;DHT22;6091;51.432;6.880;2024-01-15T10:20:10;26.10;29.80
12060;DHT22;6091;51.432;6.880;2024-01-15T10:22:43;26.10;29.80
12060;DHT22;6091;51.432;6.880;2024-01-15T10:25:15;26.10;29.90
12060;DHT22;6091;51.432;6.880;2024-01-15T10:27:59;26.20;29.90
12060;DHT22;6091;51.432;6.880;2024-01-15T10:30:32;26.30;29.70
12060;DHT22;6091;51.432;6.880;2024-01-15T10:33:02;26.30;29.40
12060;DHT22;6091;51.432;6.880;2024-01-15T10:35:32;26.30;28.20
12060;DHT22;6091;51.432;6.880;2024-01-15T10:38:01;26.30;27.90
12060;DHT22;6091;51.432;6.880;2024-01-15T10:40:29;26.20;28.00
12060;DHT22;6091;51.432;6.880;2024-01-15T10:42:56;26.10;28.10
12060;DHT22;6091;51.432;6.880;2024-01-15T10:45:24;25.80;28.10
12060;DHT22;6091;51.432;6.880;2024-01-15T10:47:52;25.80;28.40
12060;DHT22;6091;51.432;6.880;2024-01-15T10:50:21;25.80;28.50
12060;DHT22;6091;51.432;6.880;2024-01-15T10:52:49;25.60;28.70
12060;DHT22;6091;51.432;6.880;2024-01-15T10:55:21;25.60;28.80
12060;DHT22;6091;51.432;6.880;2024-01-15T10:57:52;25.70;28.80
12060;DHT22;6091;51.432;6.880;2024-01-15T11:00:20;25.60;28.70
12060;DHT22;6091;51.432;6.880;2024-01-15T11:02:48;25.60;28.80
12060;DHT22;6091;51.432;6.880;2024-01-15T11:05:15;25.60;28.90
12060;DHT22;6091;51.432;6.880;2024-01-15T11:07:44;25.60;29.00
12060;DHT22;6091;51.432;6.880;2024-01-15T11:10:37;25.60;29.10
12060;DHT22;6091;51.432;6.880;2024-01-15T11:13:10;25.70;29.00
12060;DHT22;6091;51.432;6.880;2024-01-15T11:16:01;25.70;29.10
12060;DHT22;6091;51.432;6.880;2024-01-15T11:18:39;25.80;29.10
12060;DHT22;6091;51.432;6.880;2024-01-15T11:21:28;25.90;29.20
12060;DHT22;6091;51.432;6.880;2024-01-15T11:23:58;25.90;29.20
12060;DHT22;6091;51.432;6.880;2024-01-15T11:29:31;26.10;29.20
12060;DHT22;6091;51.432;6.880;2024-01-15T11:32:06;26.10;29.10
12060;DHT22;6091;51.432;6.880;2024-01-15T11:34:59;26.20;29.10
12060;DHT22;6091;51.432;6.880;2024-01-15T11:43:00;26.30;29.00
12060;DHT22;6091;51.432;6.880;2024-01-15T11:45:28;26.30;29.00
12060;DHT22;6091;51.432;6.880;2024-01-15T11:50:46;26.30;28.90
12060;DHT22;6091;51.432;6.880;2024-01-15T11:53:36;26.30;28.90
12060;DHT22;6091;51.432;6.880;2024-01-15T11:56:15;26.30;28.90
12060;DHT22;6091;51.432;6.880;2024-01-15T11:58:46;26.30;28.90
12060;DHT22;6091;51.432;6.880;2024-01-15T12:01:14;26.30;28.80
12060;DHT22;6091;51.432;6.880;2024-01-15T12:03:41;26.20;28.80
12060;DHT22;6091;51.432;6.880;2024-01-15T12:06:09;26.10;28.70
12060;DHT22;6091;51.432;6.880;2024-01-15T12:08:37;26.10;28.70
12060;DHT22;6091;51.432;6.880;2024-01-15T12:11:11;26.00;28.70
12060;DHT22;6091;51.432;6.880;2024-01-15T12:13:42;26.00;28.80
12060;DHT22;6091;51.432;6.880;2024-01-15T12:16:11;25.90;28.80
12060;DHT22;6091;51.432;6.880;2024-01-15T12:18:41;25.90;28.80
12060;DHT22;6091;51.432;6.880;2024-01-15T12:21:09;25.80;28.90
12060;DHT22;6091;51.432;6.880;2024-01-15T12:23:36;25.80;29.00
12060;DHT22;6091;51.432;6.880;2024-01-15T12:26:03;25.70;29.10
12060;DHT22;6091;51.432;6.880;2024-01-15T12:28:31;25.70;29.20
12060;DHT22;6091;51.432;6.880;2024-01-15T12:30:58;25.70;29.20
12060;DHT22;6091;51.432;6.880;2024-01-15T12:33:27;25.70;29.30
12060;DHT22;6091;51.432;6.880;2024-01-15T12:35:55;25.80;29.30
12060;DHT22;6091;51.432;6.880;2024-01-15T12:38:22;25.80;29.30
12060;DHT22;6091;51.432;6.880;2024-01-15T12:40:50;25.90;29.40
12060;DHT22;6091;51.432;6.880;2024-01-15T12:43:17;25.90;29.30
12060;DHT22;6091;51.432;6.880;2024-01-15T12:45:46;26.00;29.40
12060;DHT22;6091;51.432;6.880;2024-01-15T12:48:14;26.10;29.30
12060;DHT22;6091;51.432;6.880;2024-01-15T12:50:45;26.10;29.30
12060;DHT22;6091;51.432;6.880;2024-01-15T12:53:12;26.20;29.30
12060;DHT22;6091;51.432;6.880;2024-01-15T12:55:39;26.20;29.20
12060;DHT22;6091;51.432;6.880;2024-01-15T12:58:06;26.20;29.10
12060;DHT22;6091;51.432;6.880;2024-01-15T13:00:33;26.30;29.10
12060;DHT22;6091;51.432;6.880;2024-01-15T13:03:02;26.20;29.00
12060;DHT22;6091;51.432;6.880;2024-01-15T13:05:32;26.30;29.00
12060;DHT22;6091;51.432;6.880;2024-01-15T13:08:01;26.30;29.00
12060;DHT22;6091;51.432;6.880;2024-01-15T13:10:30;26.30;29.00
12060;DHT22;6091;51.432;6.880;2024-01-15T13:12:58;26.20;28.90
12060;DHT22;6091;51.432;6.880;2024-01-15T13:15:26;26.20;28.90
12060;DHT22;6091;51.432;6.880;2024-01-15T13:17:53;26.10;28.80
12060;DHT22;6091;51.432;6.880;2024-01-15T13:20:20;26.10;28.90
12060;DHT22;6091;51.432;6.880;2024-01-15T13:22:49;26.10;28.90
12060;DHT22;6091;51.432;6.880;2024-01-15T13:25:17;26.00;28.80
12060;DHT22;6091;51.432;6.880;2024-01-15T13:27:45;26.00;28.90
12060;DHT22;6091;51.432;6.880;2024-01-15T13:30:12;25.90;28.90
12060;DHT22;6091;51.432;6.880;2024-01-15T13:32:40;25.50;28.70
12060;DHT22;6091;51.432;6.880;2024-01-15T13:35:08;25.80;29.00
12060;DHT22;6091;51.432;6.880;2024-01-15T13:37:39;25.70;29.00
12060;DHT22;6091;51.432;6.880;2024-01-15T13:40:08;25.70;29.20
12060;DHT22;6091;51.432;6.880;2024-01-15T13:42:36;25.70;29.20
12060;DHT22;6091;51.432;6.880;2024-01-15T13:45:07;25.70;29.30
12060;DHT22;6091;51.432;6.880;2024-01-15T13:47:34;25.70;29.40
12060;DHT22;6091;51.432;6.880;2024-01-15T13:50:03;25.70;29.40
12060;DHT22;6091;51.432;6.880;2024-01-15T13:52:31;25.80;29.40
12060;DHT22;6091;51.432;6.880;2024-01-15T13:54:58;25.80;29.40
12060;DHT22;6091;51.432;6.880;2024-01-15T13:57:26;25.90;29.40
12060;DHT22;6091;51.432;6.880;2024-01-15T13:59:53;25.90;29.40
12060;DHT22;6091;51.432;6.880;2024-01-15T14:02:20;26.00;29.90
12060;DHT22;6091;51.432;6.880;2024-01-15T14:04:50;26.00;29.30
12060;DHT22;6091;51.432;6.880;2024-01-15T14:07:18;26.10;29.30
12060;DHT22;6091;51.432;6.880;2024-01-15T14:09:45;26.10;29.30
12060;DHT22;6091;51.432;6.880;2024-01-15T14:12:13;26.10;29.20
12060;DHT22;6091;51.432;6.880;2024-01-15T14:14:41;26.10;29.20
12060;DHT22;6091;51.432;6.880;2024-01-15T14:17:08;26.20;29.20
12060;DHT22;6091;51.432;6.880;2024-01-15T14:19:36;26.10;29.10
12060;DHT22;6091;51.432;6.880;2024-01-15T14:22:04;26.10;28.40
12060;DHT22;6091;51.432;6.880;2024-01-15T14:24:32;26.10;28.20
12060;DHT22;6091;51.432;6.880;2024-01-15T14:26:59;25.90;28.20
12060;DHT22;6091;51.432;6.880;2024-01-15T14:29:27;25.80;28.40
12060;DHT22;6091;51.432;6.880;2024-01-15T14:31:55;25.70;28.50
12060;DHT22;6091;51.432;6.880;2024-01-15T14:34:23;25.70;28.60
12060;DHT22;6091;51.432;6.880;2024-01-15T14:36:52;25.60;28.70
12060;DHT22;6091;51.432;6.880;2024-01-15T14:39:22;25.50;29.00
12060;DHT22;6091;51.432;6.880;2024-01-15T14:41:51;25.60;29.10
12060;DHT22;6091;51.432;6.880;2024-01-15T14:44:20;25.60;29.10
12060;DHT22;6091;51.432;6.880;2024-01-15T14:46:48;25.70;29.20
12060;DHT22;6091;51.432;6.880;2024-01-15T14:49:15;25.70;29.20
12060;DHT22;6091;51.432;6.880;2024-01-15T14:51:44;25.80;29.30
12060;DHT22;6091;51.432;6.880;2024-01-15T14:54:13;25.90;29.30
12060;DHT22;6091;51.432;6.880;2024-01-15T14:56:40;25.90;29.30
12060;DHT22;6091;51.432;6.880;2024-01-15T14:59:07;26.00;29.30
12060;DHT22;6091;51.432;6.880;2024-01-15T15:01:35;26.10;29.40
12060;DHT22;6091;51.432;6.880;2024-01-15T15:04:03;26.20;29.30
12060;DHT22;6091;51.432;6.880;2024-01-15T15:06:31;26.20;29.30
12060;DHT22;6091;51.432;6.880;2024-01-15T15:08:58;26.30;29.30
12060;DHT22;6091;51.432;6.880;2024-01-15T15:11:27;26.30;29.20
12060;DHT22;6091;51.432;6.880;2024-01-15T15:13:55;26.40;29.10
12060;DHT22;6091;51.432;6.880;2024-01-15T15:16:23;26.40;29.10
12060;DHT22;6091;51.432;6.880;2024-01-15T15:18:50;26.40;29.00
12060;DHT22;6091;51.432;6.880;2024-01-15T15:21:18;26.40;29.00
12060;DHT22;6091;51.432;6.880;2024-01-15T15:23:46;26.40;29.00
12060;DHT22;6091;51.432;6.880;2024-01-15T15:26:17;26.40;29.00
12060;DHT22;6091;51.432;6.880;2024-01-15T15:28:46;26.40;29.00
12060;DHT22;6091;51.432;6.880;2024-01-15T15:31:26;26.40;29.00
12060;DHT22;6091;51.432;6.880;2024-01-15T15:33:56;26.30;28.90
12060;DHT22;6091;51.432;6.880;2024-01-15T15:36:25;26.30;28.90
12060;DHT22;6091;51.432;6.880;2024-01-15T15:38:55;26.30;28.90
12060;DHT22;6091;51.432;6.880;2024-01-15T15:41:24;26.20;29.40
12060;DHT22;6091;51.432;6.880;2024-01-15T15:43:53;26.20;28.90
12060;DHT22;6091;51.432;6.880;2024-01-15T15:46:23;26.10;28.80
12060;DHT22;6091;51.432;6.880;2024-01-15T15:48:51;26.10;28.90
12060;DHT22;6091;51.432;6.880;2024-01-15T15:51:19;26.10;28.90
12060;DHT22;6091;51.432;6.880;2024-01-15T15:53:46;26.00;29.20
12060;DHT22;6091;51.432;6.880;2024-01-15T15:56:14;26.00;29.10
12060;DHT22;6091;51.432;6.880;2024-01-15T15:58:42;26.00;29.20
12060;DHT22;6091;51.432;6.880;2024-01-15T16:01:10;26.00;29.20
12060;DHT22;6091;51.432;6.880;2024-01-15T16:03:38;26.00;29.30